ADDS METAR Data INFO
IDs: Format: Raw Decoded Include TAF

Data at: 0254 UTC 17 Jan 2018

KLRD 170156Z 02007KT 10SM OVC044 01/M06 A3072 RMK AO2 SLP415 T00061061